createdAt,value
2018-10-02T00:01:40.074Z,43.40
2018-10-02T00:04:06.940Z,43.30
2018-10-02T00:06:33.805Z,43.30
2018-10-02T00:09:00.636Z,43.30
2018-10-02T00:11:27.669Z,43.30
2018-10-02T00:13:54.486Z,43.40
2018-10-02T00:16:21.310Z,43.30
2018-10-02T00:18:48.141Z,43.30
2018-10-02T00:21:15.029Z,43.30
2018-10-02T00:23:41.863Z,43.30
2018-10-02T00:26:08.680Z,43.20
2018-10-02T00:28:35.528Z,43.20
2018-10-02T00:31:02.407Z,43.30
2018-10-02T00:33:29.232Z,43.20
2018-10-02T00:35:56.054Z,43.20
2018-10-02T00:38:22.876Z,43.30
2018-10-02T00:40:49.769Z,43.20
2018-10-02T00:43:16.602Z,43.20
2018-10-02T00:45:43.418Z,43.20
2018-10-02T00:48:10.256Z,43.20
2018-10-02T00:50:37.137Z,43.20
2018-10-02T00:53:03.975Z,43.20
2018-10-02T00:55:30.811Z,43.20
2018-10-02T00:57:57.639Z,43.20
2018-10-02T01:00:24.518Z,43.20
2018-10-02T01:02:51.360Z,43.20
2018-10-02T01:05:18.188Z,43.20
2018-10-02T01:07:45.046Z,43.20
2018-10-02T01:10:11.882Z,43.20
2018-10-02T01:12:38.701Z,43.20
2018-10-02T01:15:05.536Z,43.20
2018-10-02T01:17:32.369Z,43.20
2018-10-02T01:19:59.201Z,43.20
2018-10-02T01:22:26.018Z,43.00
2018-10-02T01:24:52.862Z,43.10
2018-10-02T01:27:19.685Z,43.10
2018-10-02T01:29:46.522Z,43.00
2018-10-02T01:32:13.429Z,43.10
2018-10-02T01:34:40.265Z,43.00
2018-10-02T01:37:07.082Z,43.00
2018-10-02T01:39:33.903Z,43.00
2018-10-02T01:42:00.841Z,42.90
2018-10-02T01:44:27.678Z,43.30
2018-10-02T01:46:54.504Z,42.90
2018-10-02T01:49:21.329Z,43.00
2018-10-02T01:51:48.234Z,42.90
2018-10-02T01:54:15.056Z,42.90
2018-10-02T01:56:41.889Z,42.90
2018-10-02T01:59:08.715Z,42.90
2018-10-02T02:01:35.605Z,42.90
2018-10-02T02:04:02.439Z,42.90
2018-10-02T02:06:29.250Z,42.80
2018-10-02T02:08:56.083Z,42.90
2018-10-02T02:11:22.960Z,42.80
2018-10-02T02:13:49.773Z,42.70
2018-10-02T02:16:16.601Z,42.80
2018-10-02T02:18:43.425Z,42.80
2018-10-02T02:21:10.327Z,42.80
2018-10-02T02:23:37.163Z,42.80
2018-10-02T02:26:03.988Z,42.80
2018-10-02T02:28:30.812Z,42.60
2018-10-02T02:30:57.705Z,42.70
2018-10-02T02:33:24.547Z,42.70
2018-10-02T02:35:51.389Z,42.70
2018-10-02T02:38:18.214Z,42.70
2018-10-02T02:40:45.075Z,42.70
2018-10-02T02:43:11.893Z,42.70
2018-10-02T02:45:38.732Z,42.70
2018-10-02T02:48:05.558Z,42.60
2018-10-02T02:50:32.453Z,42.70
2018-10-02T02:52:59.279Z,42.50
2018-10-02T02:55:26.110Z,42.60
2018-10-02T02:57:52.928Z,42.60
2018-10-02T03:00:19.814Z,42.60
2018-10-02T03:02:46.666Z,42.40
2018-10-02T03:05:13.534Z,42.40
2018-10-02T03:07:40.354Z,42.40
2018-10-02T03:10:07.193Z,42.50
2018-10-02T03:12:34.015Z,42.40
2018-10-02T03:15:00.855Z,42.30
2018-10-02T03:17:27.666Z,42.40
2018-10-02T03:19:54.501Z,42.40
2018-10-02T03:22:21.336Z,42.40
2018-10-02T03:24:48.167Z,42.30
2018-10-02T03:27:14.973Z,42.40
2018-10-02T03:29:41.811Z,42.30
2018-10-02T03:32:08.969Z,42.30
2018-10-02T03:34:35.761Z,42.30
2018-10-02T03:37:02.686Z,42.30
2018-10-02T03:39:29.513Z,42.40
2018-10-02T03:41:56.355Z,42.40
2018-10-02T03:44:23.186Z,42.40
2018-10-02T03:46:50.034Z,42.40
2018-10-02T03:49:16.859Z,42.40
2018-10-02T03:51:43.735Z,43.10
2018-10-02T03:54:10.554Z,42.40
2018-10-02T03:56:37.382Z,42.40
2018-10-02T03:59:04.201Z,42.40
2018-10-02T04:01:31.095Z,42.20
2018-10-02T04:03:57.926Z,42.30
2018-10-02T04:06:24.799Z,42.00
2018-10-02T04:08:51.618Z,42.20
2018-10-02T04:11:18.460Z,42.10
2018-10-02T04:13:45.285Z,42.10
2018-10-02T04:16:12.128Z,41.90
2018-10-02T04:18:38.980Z,42.10
2018-10-02T04:21:05.832Z,41.90
2018-10-02T04:23:32.669Z,41.90
2018-10-02T04:25:59.577Z,41.90
2018-10-02T04:28:26.431Z,41.90
2018-10-02T04:30:53.421Z,41.70
2018-10-02T04:33:20.250Z,41.80
2018-10-02T04:35:47.084Z,41.60
2018-10-02T04:38:13.926Z,41.60
2018-10-02T04:40:40.798Z,41.70
2018-10-02T04:43:07.642Z,41.80
2018-10-02T04:45:34.471Z,41.70
2018-10-02T04:48:01.298Z,41.50
2018-10-02T04:50:28.150Z,41.70
2018-10-02T04:52:54.984Z,41.60
2018-10-02T04:55:21.810Z,41.50
2018-10-02T04:57:48.634Z,41.50
2018-10-02T05:00:15.539Z,41.50
2018-10-02T05:02:42.361Z,41.40
2018-10-02T05:05:09.190Z,41.60
2018-10-02T05:07:36.033Z,41.30
2018-10-02T05:10:02.877Z,41.30
2018-10-02T05:12:29.711Z,41.20
2018-10-02T05:14:56.524Z,42.00
2018-10-02T05:17:23.347Z,42.10
2018-10-02T05:19:50.171Z,42.00
2018-10-02T05:22:16.993Z,42.00
2018-10-02T05:24:43.822Z,41.90
2018-10-02T05:27:10.688Z,41.90
2018-10-02T05:29:37.506Z,41.90
2018-10-02T05:32:04.486Z,41.60
2018-10-02T05:34:31.316Z,41.80
2018-10-02T05:36:58.151Z,41.30
2018-10-02T05:39:24.977Z,41.50
2018-10-02T05:41:51.859Z,41.60
2018-10-02T05:44:18.692Z,41.60
2018-10-02T05:46:45.506Z,41.60
2018-10-02T05:49:12.333Z,41.50
2018-10-02T05:51:39.230Z,41.50
2018-10-02T05:54:06.067Z,41.50
2018-10-02T05:56:32.908Z,41.50
2018-10-02T05:58:59.743Z,41.50
2018-10-02T06:01:26.613Z,41.50
2018-10-02T06:03:53.524Z,41.60
2018-10-02T06:06:20.280Z,41.50
2018-10-02T06:08:47.122Z,41.50
2018-10-02T06:11:13.997Z,41.50
2018-10-02T06:13:40.828Z,41.50
2018-10-02T06:16:07.658Z,41.50
2018-10-02T06:18:34.524Z,41.50
2018-10-02T06:21:01.360Z,41.50
2018-10-02T06:23:28.249Z,41.30
2018-10-02T06:25:55.038Z,41.50
2018-10-02T06:28:21.884Z,41.50
2018-10-02T06:30:48.714Z,41.60
2018-10-02T06:33:15.555Z,41.70
2018-10-02T06:35:42.396Z,41.80
2018-10-02T06:38:09.289Z,41.90
2018-10-02T06:40:36.098Z,42.00
2018-10-02T06:43:02.922Z,41.90
2018-10-02T06:45:29.762Z,42.00
2018-10-02T06:47:56.582Z,41.80
2018-10-02T06:50:23.489Z,41.80
2018-10-02T06:52:50.390Z,41.70
2018-10-02T06:55:17.117Z,41.70
2018-10-02T06:57:43.956Z,41.80
2018-10-02T07:00:10.825Z,41.70
2018-10-02T07:02:37.720Z,41.70
2018-10-02T07:05:04.633Z,41.80
2018-10-02T07:07:31.471Z,41.70
2018-10-02T07:09:58.302Z,41.80
2018-10-02T07:12:25.137Z,41.80
2018-10-02T07:14:51.963Z,41.60
2018-10-02T07:17:19.002Z,41.60
2018-10-02T07:19:45.790Z,41.70
2018-10-02T07:22:12.625Z,41.70
2018-10-02T07:24:39.445Z,41.80
2018-10-02T07:27:06.402Z,41.80
2018-10-02T07:29:33.112Z,41.70
2018-10-02T07:31:59.986Z,41.70
2018-10-02T07:34:26.816Z,41.70
2018-10-02T07:36:53.666Z,41.70
2018-10-02T07:39:20.471Z,41.80
2018-10-02T07:41:47.459Z,41.80
2018-10-02T07:44:14.312Z,41.80
2018-10-02T07:46:41.145Z,41.80
2018-10-02T07:49:07.983Z,41.80
2018-10-02T07:51:34.955Z,41.80
2018-10-02T07:54:01.814Z,41.70
2018-10-02T07:56:28.622Z,41.60
2018-10-02T07:58:55.453Z,41.70
2018-10-02T08:01:22.312Z,41.70
2018-10-02T08:03:49.151Z,41.60
2018-10-02T08:06:15.981Z,41.60
2018-10-02T08:08:42.889Z,41.70
2018-10-02T08:11:09.686Z,41.70
2018-10-02T08:13:36.555Z,41.70
2018-10-02T08:16:03.363Z,41.70
2018-10-02T08:18:30.191Z,41.80
2018-10-02T08:20:57.084Z,41.70
2018-10-02T08:23:23.928Z,41.70
2018-10-02T08:25:50.727Z,41.70
2018-10-02T08:28:17.702Z,41.50
2018-10-02T08:30:44.648Z,41.60
2018-10-02T08:33:11.608Z,41.80
2018-10-02T08:35:38.531Z,41.70
2018-10-02T08:38:05.294Z,41.70
2018-10-02T08:40:32.214Z,41.80
2018-10-02T08:42:59.058Z,41.70
2018-10-02T08:45:27.000Z,42.40
2018-10-02T08:47:54.793Z,41.70
2018-10-02T08:50:21.664Z,41.60
2018-10-02T08:52:48.462Z,41.50
2018-10-02T08:55:15.298Z,41.40
2018-10-02T08:57:42.146Z,41.50
2018-10-02T09:00:09.025Z,41.60
2018-10-02T09:02:35.933Z,41.20
2018-10-02T09:05:02.798Z,41.30
2018-10-02T09:07:29.640Z,41.40
2018-10-02T09:09:56.481Z,41.40
2018-10-02T09:12:23.382Z,41.40
2018-10-02T09:14:50.156Z,42.20
2018-10-02T09:17:17.547Z,41.40
2018-10-02T09:19:44.568Z,41.40
2018-10-02T09:22:11.407Z,41.40
2018-10-02T09:24:38.287Z,41.40
2018-10-02T09:27:05.121Z,41.40
2018-10-02T09:29:31.934Z,41.30
2018-10-02T09:31:59.029Z,41.30
2018-10-02T09:34:25.893Z,41.30
2018-10-02T09:36:52.807Z,41.30
2018-10-02T09:39:19.559Z,41.40
2018-10-02T09:41:46.572Z,41.30
2018-10-02T09:44:13.399Z,41.20
2018-10-02T09:46:40.235Z,41.30
2018-10-02T09:49:07.206Z,41.30
2018-10-02T09:51:34.236Z,41.30
2018-10-02T09:54:01.046Z,41.30
2018-10-02T09:56:27.889Z,41.30
2018-10-02T09:58:54.699Z,41.30
2018-10-02T10:01:21.728Z,41.20
2018-10-02T10:03:48.568Z,41.20
2018-10-02T10:06:15.399Z,41.30
2018-10-02T10:08:42.229Z,41.40
2018-10-02T10:11:09.086Z,41.30
2018-10-02T10:13:35.961Z,41.30
2018-10-02T10:16:02.801Z,41.30
2018-10-02T10:18:29.619Z,41.20
2018-10-02T10:20:56.465Z,41.30
2018-10-02T10:23:23.319Z,41.30
2018-10-02T10:25:50.157Z,41.30
2018-10-02T10:28:16.981Z,41.20
2018-10-02T10:30:43.835Z,41.30
2018-10-02T10:33:10.665Z,41.30
2018-10-02T10:35:37.531Z,41.30
2018-10-02T10:38:04.346Z,41.30
2018-10-02T10:40:31.210Z,41.30
2018-10-02T10:42:58.077Z,41.20
2018-10-02T10:45:24.918Z,41.20
2018-10-02T10:47:51.739Z,41.20
2018-10-02T10:50:18.791Z,41.30
2018-10-02T10:52:45.843Z,41.20
2018-10-02T10:55:12.825Z,41.30
2018-10-02T10:57:39.638Z,41.30
2018-10-02T11:00:06.673Z,41.20
2018-10-02T11:02:33.498Z,41.00
2018-10-02T11:05:00.359Z,41.30
2018-10-02T11:07:27.179Z,41.00
2018-10-02T11:09:54.118Z,41.20
2018-10-02T11:12:20.936Z,41.20
2018-10-02T11:14:47.837Z,41.60
2018-10-02T11:17:15.072Z,41.80
2018-10-02T11:19:41.972Z,41.90
2018-10-02T11:22:08.723Z,41.90
2018-10-02T11:24:35.562Z,42.10
2018-10-02T11:27:02.393Z,42.20
2018-10-02T11:29:29.246Z,42.20
2018-10-02T11:31:56.135Z,42.30
2018-10-02T11:34:22.963Z,42.30
2018-10-02T11:36:49.813Z,42.30
2018-10-02T11:39:16.733Z,42.30
2018-10-02T11:41:43.714Z,42.30
2018-10-02T11:44:10.651Z,42.30
2018-10-02T11:46:37.565Z,42.30
2018-10-02T11:49:04.460Z,42.90
2018-10-02T11:51:31.293Z,42.20
2018-10-02T11:53:58.220Z,42.10
2018-10-02T11:56:25.034Z,42.20
2018-10-02T11:58:52.026Z,42.10
2018-10-02T12:01:19.022Z,42.00
2018-10-02T12:03:45.992Z,42.00
2018-10-02T12:06:12.854Z,41.90
2018-10-02T12:08:39.714Z,42.00
2018-10-02T12:11:07.491Z,42.20
2018-10-02T12:13:34.514Z,42.00
2018-10-02T12:16:01.217Z,41.90
2018-10-02T12:18:28.052Z,41.90
2018-10-02T12:20:55.041Z,41.90
2018-10-02T12:23:21.875Z,41.90
2018-10-02T12:25:48.712Z,41.90
2018-10-02T12:28:15.547Z,41.90
2018-10-02T12:30:42.452Z,41.80
2018-10-02T12:33:09.275Z,41.80
2018-10-02T12:35:36.090Z,41.80
2018-10-02T12:38:02.911Z,41.80
2018-10-02T12:40:29.793Z,41.80
2018-10-02T12:42:56.626Z,41.80
2018-10-02T12:45:23.442Z,41.80
2018-10-02T12:47:50.288Z,41.80
2018-10-02T12:50:17.157Z,41.80
2018-10-02T12:52:44.197Z,41.80
2018-10-02T12:55:11.226Z,41.80
2018-10-02T12:57:38.040Z,41.70
2018-10-02T13:00:04.931Z,41.70
2018-10-02T13:02:31.789Z,41.70
2018-10-02T13:04:58.598Z,41.70
2018-10-02T13:07:25.422Z,41.70
2018-10-02T13:09:52.311Z,41.70
2018-10-02T13:12:20.000Z,41.70
2018-10-02T13:14:46.823Z,41.70
2018-10-02T13:17:14.024Z,41.70
2018-10-02T13:19:40.839Z,41.60
2018-10-02T13:22:07.662Z,41.70
2018-10-02T13:24:34.507Z,41.80
2018-10-02T13:27:01.333Z,41.80
2018-10-02T13:29:28.162Z,41.70
2018-10-02T13:31:55.128Z,42.00
2018-10-02T13:34:21.950Z,41.70
2018-10-02T13:36:48.773Z,41.70
2018-10-02T13:39:15.604Z,41.80
2018-10-02T13:41:42.490Z,41.80
2018-10-02T13:44:09.325Z,41.80
2018-10-02T13:46:36.167Z,41.80
2018-10-02T13:49:03.020Z,41.80
2018-10-02T13:51:29.869Z,41.80
2018-10-02T13:53:56.760Z,41.60
2018-10-02T13:56:23.605Z,41.60
2018-10-02T13:58:50.447Z,41.70
2018-10-02T14:01:18.643Z,41.80
2018-10-02T14:03:45.454Z,41.80
2018-10-02T14:06:12.296Z,41.80
2018-10-02T14:08:39.139Z,41.80
2018-10-02T14:11:06.059Z,41.90
2018-10-02T14:13:32.914Z,41.80
2018-10-02T14:15:59.729Z,41.80
2018-10-02T14:18:26.570Z,41.70
2018-10-02T14:20:53.423Z,41.70
2018-10-02T14:23:20.275Z,41.80
2018-10-02T14:25:47.094Z,41.80
2018-10-02T14:28:14.165Z,41.80
2018-10-02T14:30:40.979Z,41.80
2018-10-02T14:33:07.926Z,41.80
2018-10-02T14:35:34.822Z,41.90
2018-10-02T14:38:01.640Z,41.90
2018-10-02T14:40:28.553Z,41.90
2018-10-02T14:42:55.386Z,41.90
2018-10-02T14:45:22.967Z,41.90
2018-10-02T14:47:49.785Z,41.90
2018-10-02T14:50:16.788Z,41.90
2018-10-02T14:52:43.615Z,41.90
2018-10-02T14:55:10.461Z,42.00
2018-10-02T14:57:37.402Z,42.00
2018-10-02T15:00:04.347Z,41.90
2018-10-02T15:02:31.191Z,41.90
2018-10-02T15:04:58.025Z,42.00
2018-10-02T15:07:24.851Z,42.00
2018-10-02T15:09:51.762Z,41.90
2018-10-02T15:12:18.589Z,41.90
2018-10-02T15:14:45.473Z,42.00
2018-10-02T15:17:12.624Z,42.00
2018-10-02T15:19:39.449Z,42.40
2018-10-02T15:22:06.274Z,42.00
2018-10-02T15:24:33.110Z,41.90
2018-10-02T15:27:00.144Z,42.40
2018-10-02T15:29:27.007Z,41.80
2018-10-02T15:31:53.931Z,41.70
2018-10-02T15:34:20.830Z,42.40
2018-10-02T15:36:47.910Z,41.60
2018-10-02T15:39:14.716Z,41.70
2018-10-02T15:41:41.680Z,41.60
2018-10-02T15:44:08.527Z,41.70
2018-10-02T15:46:35.350Z,41.60
2018-10-02T15:49:02.193Z,41.70
2018-10-02T15:51:29.066Z,41.60
2018-10-02T15:53:55.898Z,41.60
2018-10-02T15:56:26.096Z,41.50
2018-10-02T15:58:52.938Z,41.50
2018-10-02T16:01:19.911Z,41.50
2018-10-02T16:03:46.757Z,41.50
2018-10-02T16:06:13.576Z,41.50
2018-10-02T16:08:40.409Z,41.40
2018-10-02T16:11:07.296Z,41.40
2018-10-02T16:13:34.122Z,41.40
2018-10-02T16:16:00.957Z,41.40
2018-10-02T16:18:27.824Z,41.40
2018-10-02T16:20:54.644Z,41.40
2018-10-02T16:23:21.499Z,41.40
2018-10-02T16:25:48.698Z,41.40
2018-10-02T16:28:15.522Z,41.40
2018-10-02T16:30:42.659Z,41.40
2018-10-02T16:33:10.224Z,41.40
2018-10-02T16:35:38.167Z,41.40
2018-10-02T16:38:05.852Z,41.40
2018-10-02T16:40:33.595Z,41.30
2018-10-02T16:43:00.406Z,41.40
2018-10-02T16:45:27.592Z,41.40
2018-10-02T16:47:58.109Z,41.20
2018-10-02T16:50:25.766Z,41.30
2018-10-02T16:52:52.581Z,41.40
2018-10-02T16:55:19.635Z,41.50
2018-10-02T16:57:46.618Z,41.60
2018-10-02T17:00:14.119Z,41.60
2018-10-02T17:02:41.469Z,41.50
2018-10-02T17:05:11.363Z,41.50
2018-10-02T17:07:38.391Z,41.50
2018-10-02T17:10:05.296Z,41.60
2018-10-02T17:12:32.105Z,41.60
2018-10-02T17:14:58.953Z,41.60
2018-10-02T17:17:25.919Z,41.70
2018-10-02T17:19:52.755Z,41.70
2018-10-02T17:22:19.592Z,41.80
2018-10-02T17:24:46.422Z,41.80
2018-10-02T17:27:13.251Z,41.70
2018-10-02T17:29:40.089Z,41.70
2018-10-02T17:32:07.081Z,41.70
2018-10-02T17:34:33.916Z,41.70
2018-10-02T17:37:00.736Z,41.70
2018-10-02T17:39:27.560Z,41.80
2018-10-02T17:41:54.394Z,41.90
2018-10-02T17:44:21.228Z,41.80
2018-10-02T17:46:51.906Z,41.80
2018-10-02T17:49:18.719Z,41.70
2018-10-02T17:51:46.473Z,41.70
2018-10-02T17:54:13.282Z,41.70
2018-10-02T17:56:40.810Z,41.70
2018-10-02T17:59:07.831Z,41.70
2018-10-02T18:01:34.773Z,42.30
2018-10-02T18:04:01.501Z,41.70
2018-10-02T18:06:29.400Z,41.70
2018-10-02T18:08:56.176Z,41.70
2018-10-02T18:11:23.720Z,41.60
2018-10-02T18:13:50.695Z,41.60
2018-10-02T18:16:18.217Z,42.30
2018-10-02T18:18:45.019Z,41.70
2018-10-02T18:21:14.325Z,41.70
2018-10-02T18:23:41.213Z,41.80
2018-10-02T18:26:08.431Z,41.70
2018-10-02T18:28:35.246Z,41.70
2018-10-02T18:31:02.548Z,41.80
2018-10-02T18:33:29.514Z,41.70
2018-10-02T18:35:56.735Z,41.80
2018-10-02T18:38:23.543Z,41.80
2018-10-02T18:40:50.725Z,41.50
2018-10-02T18:43:17.603Z,41.60
2018-10-02T18:45:44.827Z,41.50
2018-10-02T18:48:11.631Z,41.50
2018-10-02T18:50:38.834Z,42.00
2018-10-02T18:53:05.642Z,42.00
2018-10-02T18:55:32.624Z,41.40
2018-10-02T18:57:59.441Z,41.20
2018-10-02T19:00:27.338Z,41.00
2018-10-02T19:02:54.154Z,41.10
2018-10-02T19:05:20.973Z,40.90
2018-10-02T19:07:47.874Z,41.30
2018-10-02T19:10:14.963Z,41.40
2018-10-02T19:12:41.809Z,41.40
2018-10-02T19:15:08.652Z,41.50
2018-10-02T19:17:35.564Z,41.70
2018-10-02T19:20:02.427Z,41.70
2018-10-02T19:22:29.315Z,41.80
2018-10-02T19:24:56.220Z,41.90
2018-10-02T19:27:23.148Z,42.10
2018-10-02T19:29:50.067Z,42.00
2018-10-02T19:32:20.892Z,42.10
2018-10-02T19:34:47.812Z,42.10
2018-10-02T19:37:15.118Z,42.20
2018-10-02T19:39:41.929Z,42.10
2018-10-02T19:42:09.000Z,42.00
2018-10-02T19:44:35.836Z,41.90
2018-10-02T19:47:02.708Z,41.80
2018-10-02T19:49:29.545Z,41.80
2018-10-02T19:51:56.853Z,41.90
2018-10-02T19:54:23.660Z,42.00
2018-10-02T19:56:50.508Z,42.00
2018-10-02T19:59:17.428Z,41.80
2018-10-02T20:01:45.105Z,41.80
2018-10-02T20:04:11.946Z,41.90
2018-10-02T20:06:38.744Z,41.90
2018-10-02T20:09:05.572Z,41.90
2018-10-02T20:11:32.482Z,41.80
2018-10-02T20:13:59.319Z,41.80
2018-10-02T20:16:26.152Z,41.90
2018-10-02T20:18:52.977Z,41.90
2018-10-02T20:21:19.942Z,41.80
2018-10-02T20:23:46.699Z,41.90
2018-10-02T20:26:14.077Z,42.00
2018-10-02T20:28:40.879Z,42.00
2018-10-02T20:31:07.847Z,41.90
2018-10-02T20:33:34.692Z,42.00
2018-10-02T20:36:01.570Z,42.00
2018-10-02T20:38:28.431Z,42.20
2018-10-02T20:40:55.667Z,42.10
2018-10-02T20:43:22.545Z,42.10
2018-10-02T20:45:49.895Z,42.20
2018-10-02T20:48:16.693Z,42.20
2018-10-02T20:50:44.341Z,42.30
2018-10-02T20:53:11.282Z,42.20
2018-10-02T20:55:38.137Z,42.10
2018-10-02T20:58:04.935Z,42.10
2018-10-02T21:00:31.858Z,42.20
2018-10-02T21:02:58.771Z,42.20
2018-10-02T21:05:26.435Z,42.20
2018-10-02T21:07:53.255Z,42.20
2018-10-02T21:10:20.251Z,42.20
2018-10-02T21:12:47.144Z,42.20
2018-10-02T21:15:17.115Z,42.20
2018-10-02T21:17:44.338Z,42.30
2018-10-02T21:20:11.301Z,42.30
2018-10-02T21:22:38.146Z,42.40
2018-10-02T21:25:05.117Z,42.40
2018-10-02T21:27:31.914Z,42.50
2018-10-02T21:29:58.854Z,42.50
2018-10-02T21:32:26.562Z,42.90
2018-10-02T21:34:53.544Z,43.00
2018-10-02T21:37:20.660Z,43.00
2018-10-02T21:39:47.606Z,43.00
2018-10-02T21:42:14.903Z,43.00
2018-10-02T21:44:41.711Z,43.00
2018-10-02T21:47:08.561Z,43.00
2018-10-02T21:49:35.384Z,43.00
2018-10-02T21:52:03.311Z,43.00
2018-10-02T21:54:30.348Z,43.00
2018-10-02T21:56:57.165Z,43.00
2018-10-02T21:59:23.993Z,42.90
2018-10-02T22:01:50.977Z,42.80
2018-10-02T22:04:17.795Z,42.80
2018-10-02T22:06:44.680Z,42.80
2018-10-02T22:09:11.549Z,42.70
2018-10-02T22:11:38.438Z,42.70
2018-10-02T22:14:05.271Z,42.80
2018-10-02T22:16:32.111Z,42.80
2018-10-02T22:18:58.942Z,42.80
2018-10-02T22:21:25.826Z,42.70
2018-10-02T22:23:52.656Z,43.30
2018-10-02T22:26:19.746Z,42.70
2018-10-02T22:28:46.597Z,42.70
2018-10-02T22:31:13.599Z,42.60
2018-10-02T22:33:40.539Z,42.70
2018-10-02T22:36:07.493Z,42.70
2018-10-02T22:38:34.853Z,42.70
2018-10-02T22:41:02.971Z,42.70
2018-10-02T22:43:29.838Z,42.70
2018-10-02T22:45:56.634Z,42.60
2018-10-02T22:48:23.489Z,42.60
2018-10-02T22:50:50.391Z,42.60
2018-10-02T22:53:17.220Z,42.60
2018-10-02T22:55:44.059Z,42.60
2018-10-02T22:58:10.887Z,42.50
2018-10-02T23:00:37.770Z,42.60
2018-10-02T23:03:04.601Z,42.50
2018-10-02T23:05:31.433Z,42.60
2018-10-02T23:07:58.237Z,43.20
2018-10-02T23:10:25.140Z,42.50
2018-10-02T23:12:51.980Z,42.50
2018-10-02T23:15:18.875Z,42.50
2018-10-02T23:17:45.698Z,42.50
2018-10-02T23:20:12.702Z,42.50
2018-10-02T23:22:39.658Z,42.50
2018-10-02T23:25:06.496Z,42.50
2018-10-02T23:27:33.327Z,42.60
2018-10-02T23:30:00.166Z,42.50
2018-10-02T23:32:27.009Z,42.60
2018-10-02T23:34:53.861Z,42.50
2018-10-02T23:37:20.686Z,42.50
2018-10-02T23:39:47.508Z,42.50
2018-10-02T23:42:14.341Z,42.50
2018-10-02T23:44:41.518Z,43.10
2018-10-02T23:47:08.997Z,42.50
2018-10-02T23:49:35.791Z,42.50
2018-10-02T23:52:02.687Z,42.50
2018-10-02T23:54:29.531Z,42.50
2018-10-02T23:56:56.383Z,42.50
2018-10-02T23:59:23.206Z,42.50
